sensor_id;sensor_type;location;lat;lon;timestamp;pressure;altitude;pressure_sealevel;temperature
75822;BMP180;64454;51.984;9.838;2022-10-26T00:01:08;100289.00;;;9.50
75822;BMP180;64454;51.984;9.838;2022-10-26T00:03:37;100283.00;;;9.20
75822;BMP180;64454;51.984;9.838;2022-10-26T00:06:09;100285.00;;;9.60
75822;BMP180;64454;51.984;9.838;2022-10-26T00:08:37;100288.00;;;9.30
75822;BMP180;64454;51.984;9.838;2022-10-26T00:11:05;100287.00;;;9.50
75822;BMP180;64454;51.984;9.838;2022-10-26T00:13:33;100282.00;;;9.40
75822;BMP180;64454;51.984;9.838;2022-10-26T00:16:07;100282.00;;;9.20
75822;BMP180;64454;51.984;9.838;2022-10-26T00:18:34;100285.00;;;9.10
75822;BMP180;64454;51.984;9.838;2022-10-26T00:21:02;100281.00;;;9.30
75822;BMP180;64454;51.984;9.838;2022-10-26T00:23:31;100282.00;;;9.20
75822;BMP180;64454;51.984;9.838;2022-10-26T00:25:58;100291.00;;;9.20
75822;BMP180;64454;51.984;9.838;2022-10-26T00:28:26;100288.00;;;9.50
75822;BMP180;64454;51.984;9.838;2022-10-26T00:30:53;100287.00;;;9.70
75822;BMP180;64454;51.984;9.838;2022-10-26T00:33:20;100287.00;;;9.80
75822;BMP180;64454;51.984;9.838;2022-10-26T00:35:48;100287.00;;;10.10
75822;BMP180;64454;51.984;9.838;2022-10-26T00:38:18;100290.00;;;9.90
75822;BMP180;64454;51.984;9.838;2022-10-26T00:40:47;100288.00;;;9.70
75822;BMP180;64454;51.984;9.838;2022-10-26T00:45:58;100292.00;;;9.50
75822;BMP180;64454;51.984;9.838;2022-10-26T00:48:30;100290.00;;;9.30
75822;BMP180;64454;51.984;9.838;2022-10-26T00:51:05;100292.00;;;9.70
75822;BMP180;64454;51.984;9.838;2022-10-26T00:53:33;100293.00;;;9.70
75822;BMP180;64454;51.984;9.838;2022-10-26T00:56:01;100291.00;;;9.70
75822;BMP180;64454;51.984;9.838;2022-10-26T00:58:29;100286.00;;;9.70
75822;BMP180;64454;51.984;9.838;2022-10-26T01:00:56;100279.00;;;9.50
75822;BMP180;64454;51.984;9.838;2022-10-26T01:03:23;100286.00;;;9.50
75822;BMP180;64454;51.984;9.838;2022-10-26T01:05:56;100292.00;;;9.70
75822;BMP180;64454;51.984;9.838;2022-10-26T01:08:24;100286.00;;;10.00
75822;BMP180;64454;51.984;9.838;2022-10-26T01:10:53;100288.00;;;9.80
75822;BMP180;64454;51.984;9.838;2022-10-26T01:13:24;100280.00;;;10.00
75822;BMP180;64454;51.984;9.838;2022-10-26T01:16:08;100283.00;;;10.20
75822;BMP180;64454;51.984;9.838;2022-10-26T01:19:21;100280.00;;;10.00
75822;BMP180;64454;51.984;9.838;2022-10-26T01:21:59;100282.00;;;9.90
75822;BMP180;64454;51.984;9.838;2022-10-26T01:24:58;100281.00;;;9.90
75822;BMP180;64454;51.984;9.838;2022-10-26T01:27:31;100276.00;;;9.80
75822;BMP180;64454;51.984;9.838;2022-10-26T01:30:32;100267.00;;;10.30
75822;BMP180;64454;51.984;9.838;2022-10-26T01:33:20;100263.00;;;10.00
75822;BMP180;64454;51.984;9.838;2022-10-26T01:36:01;100266.00;;;9.90
75822;BMP180;64454;51.984;9.838;2022-10-26T01:38:41;100266.00;;;10.10
75822;BMP180;64454;51.984;9.838;2022-10-26T01:41:16;100262.00;;;10.50
75822;BMP180;64454;51.984;9.838;2022-10-26T01:43:52;100262.00;;;10.40
75822;BMP180;64454;51.984;9.838;2022-10-26T01:46:24;100254.00;;;10.30
75822;BMP180;64454;51.984;9.838;2022-10-26T01:48:58;100250.00;;;10.20
75822;BMP180;64454;51.984;9.838;2022-10-26T01:51:29;100247.00;;;10.60
75822;BMP180;64454;51.984;9.838;2022-10-26T01:53:57;100244.00;;;10.70
75822;BMP180;64454;51.984;9.838;2022-10-26T01:56:28;100244.00;;;10.60
75822;BMP180;64454;51.984;9.838;2022-10-26T01:59:21;100245.00;;;10.60
75822;BMP180;64454;51.984;9.838;2022-10-26T02:02:38;100244.00;;;10.60
75822;BMP180;64454;51.984;9.838;2022-10-26T02:05:30;100238.00;;;10.60
75822;BMP180;64454;51.984;9.838;2022-10-26T02:08:13;100245.00;;;10.70
75822;BMP180;64454;51.984;9.838;2022-10-26T02:10:56;100231.00;;;10.70
75822;BMP180;64454;51.984;9.838;2022-10-26T02:13:35;100235.00;;;10.80
75822;BMP180;64454;51.984;9.838;2022-10-26T02:16:16;100227.00;;;10.50
75822;BMP180;64454;51.984;9.838;2022-10-26T02:18:56;100234.00;;;10.70
75822;BMP180;64454;51.984;9.838;2022-10-26T02:21:33;100226.00;;;10.60
75822;BMP180;64454;51.984;9.838;2022-10-26T02:24:05;100226.00;;;10.60
75822;BMP180;64454;51.984;9.838;2022-10-26T02:26:36;100221.00;;;10.60
75822;BMP180;64454;51.984;9.838;2022-10-26T02:29:12;100221.00;;;10.70
75822;BMP180;64454;51.984;9.838;2022-10-26T02:31:41;100220.00;;;10.60
75822;BMP180;64454;51.984;9.838;2022-10-26T02:34:13;100221.00;;;10.40
75822;BMP180;64454;51.984;9.838;2022-10-26T02:36:46;100215.00;;;10.50
75822;BMP180;64454;51.984;9.838;2022-10-26T02:39:16;100208.00;;;10.50
75822;BMP180;64454;51.984;9.838;2022-10-26T02:41:47;100209.00;;;10.70
75822;BMP180;64454;51.984;9.838;2022-10-26T02:44:21;100201.00;;;10.70
75822;BMP180;64454;51.984;9.838;2022-10-26T02:46:50;100202.00;;;10.70
75822;BMP180;64454;51.984;9.838;2022-10-26T02:49:20;100197.00;;;10.70
75822;BMP180;64454;51.984;9.838;2022-10-26T02:51:52;100194.00;;;10.70
75822;BMP180;64454;51.984;9.838;2022-10-26T02:54:32;100197.00;;;10.70
75822;BMP180;64454;51.984;9.838;2022-10-26T02:57:07;100196.00;;;10.80
75822;BMP180;64454;51.984;9.838;2022-10-26T02:59:37;100195.00;;;10.70
75822;BMP180;64454;51.984;9.838;2022-10-26T03:02:07;100187.00;;;10.70
75822;BMP180;64454;51.984;9.838;2022-10-26T03:04:36;100192.00;;;10.50
75822;BMP180;64454;51.984;9.838;2022-10-26T03:07:03;100192.00;;;10.60
75822;BMP180;64454;51.984;9.838;2022-10-26T03:09:30;100192.00;;;10.50
75822;BMP180;64454;51.984;9.838;2022-10-26T03:11:57;100193.00;;;10.40
75822;BMP180;64454;51.984;9.838;2022-10-26T03:14:24;100189.00;;;10.50
75822;BMP180;64454;51.984;9.838;2022-10-26T03:16:51;100186.00;;;10.30
75822;BMP180;64454;51.984;9.838;2022-10-26T03:19:18;100187.00;;;10.30
75822;BMP180;64454;51.984;9.838;2022-10-26T03:21:46;100184.00;;;10.20
75822;BMP180;64454;51.984;9.838;2022-10-26T03:24:13;100179.00;;;10.30
75822;BMP180;64454;51.984;9.838;2022-10-26T03:26:40;100179.00;;;10.50
75822;BMP180;64454;51.984;9.838;2022-10-26T03:29:07;100184.00;;;10.30
75822;BMP180;64454;51.984;9.838;2022-10-26T03:31:34;100179.00;;;10.30
75822;BMP180;64454;51.984;9.838;2022-10-26T03:34:01;100184.00;;;10.30
75822;BMP180;64454;51.984;9.838;2022-10-26T03:36:28;100177.00;;;10.20
75822;BMP180;64454;51.984;9.838;2022-10-26T03:38:56;100171.00;;;10.20
75822;BMP180;64454;51.984;9.838;2022-10-26T03:41:23;100171.00;;;10.20
75822;BMP180;64454;51.984;9.838;2022-10-26T03:43:50;100168.00;;;10.10
75822;BMP180;64454;51.984;9.838;2022-10-26T03:46:17;100171.00;;;10.10
75822;BMP180;64454;51.984;9.838;2022-10-26T03:48:44;100173.00;;;10.00
75822;BMP180;64454;51.984;9.838;2022-10-26T03:51:11;100169.00;;;10.10
75822;BMP180;64454;51.984;9.838;2022-10-26T03:53:38;100166.00;;;10.10
75822;BMP180;64454;51.984;9.838;2022-10-26T03:56:07;100171.00;;;10.10
75822;BMP180;64454;51.984;9.838;2022-10-26T03:58:34;100163.00;;;10.10
75822;BMP180;64454;51.984;9.838;2022-10-26T04:01:01;100175.00;;;10.00
75822;BMP180;64454;51.984;9.838;2022-10-26T04:03:28;100170.00;;;10.10
75822;BMP180;64454;51.984;9.838;2022-10-26T04:05:54;100168.00;;;10.00
75822;BMP180;64454;51.984;9.838;2022-10-26T04:08:22;100166.00;;;10.00
75822;BMP180;64454;51.984;9.838;2022-10-26T04:10:49;100170.00;;;10.00
75822;BMP180;64454;51.984;9.838;2022-10-26T04:13:18;100166.00;;;10.00
75822;BMP180;64454;51.984;9.838;2022-10-26T04:15:44;100173.00;;;9.90
75822;BMP180;64454;51.984;9.838;2022-10-26T04:18:11;100170.00;;;10.10
75822;BMP180;64454;51.984;9.838;2022-10-26T04:20:40;100172.00;;;10.20
75822;BMP180;64454;51.984;9.838;2022-10-26T04:23:11;100177.00;;;10.20
75822;BMP180;64454;51.984;9.838;2022-10-26T04:25:39;100174.00;;;10.20
75822;BMP180;64454;51.984;9.838;2022-10-26T04:28:08;100177.00;;;10.30
75822;BMP180;64454;51.984;9.838;2022-10-26T04:30:37;100172.00;;;10.40
75822;BMP180;64454;51.984;9.838;2022-10-26T04:33:05;100174.00;;;10.10
75822;BMP180;64454;51.984;9.838;2022-10-26T04:35:32;100177.00;;;10.20
75822;BMP180;64454;51.984;9.838;2022-10-26T04:38:00;100173.00;;;10.10
75822;BMP180;64454;51.984;9.838;2022-10-26T04:40:29;100175.00;;;10.20
75822;BMP180;64454;51.984;9.838;2022-10-26T04:42:57;100180.00;;;10.40
75822;BMP180;64454;51.984;9.838;2022-10-26T04:45:25;100172.00;;;10.40
75822;BMP180;64454;51.984;9.838;2022-10-26T04:48:02;100174.00;;;10.60
75822;BMP180;64454;51.984;9.838;2022-10-26T04:50:30;100172.00;;;10.60
75822;BMP180;64454;51.984;9.838;2022-10-26T04:52:57;100182.00;;;10.50
75822;BMP180;64454;51.984;9.838;2022-10-26T04:55:24;100180.00;;;10.40
75822;BMP180;64454;51.984;9.838;2022-10-26T04:57:51;100177.00;;;10.00
75822;BMP180;64454;51.984;9.838;2022-10-26T05:00:18;100173.00;;;10.00
75822;BMP180;64454;51.984;9.838;2022-10-26T05:02:45;100168.00;;;10.10
75822;BMP180;64454;51.984;9.838;2022-10-26T05:05:13;100176.00;;;10.20
75822;BMP180;64454;51.984;9.838;2022-10-26T05:07:40;100162.00;;;10.30
75822;BMP180;64454;51.984;9.838;2022-10-26T05:10:09;100162.00;;;10.20
75822;BMP180;64454;51.984;9.838;2022-10-26T05:12:35;100168.00;;;9.80
75822;BMP180;64454;51.984;9.838;2022-10-26T05:15:04;100165.00;;;10.00
75822;BMP180;64454;51.984;9.838;2022-10-26T05:17:31;100163.00;;;10.10
75822;BMP180;64454;51.984;9.838;2022-10-26T05:19:58;100164.00;;;10.10
75822;BMP180;64454;51.984;9.838;2022-10-26T05:22:31;100169.00;;;9.80
75822;BMP180;64454;51.984;9.838;2022-10-26T05:24:58;100165.00;;;9.60
75822;BMP180;64454;51.984;9.838;2022-10-26T05:27:25;100158.00;;;10.00
75822;BMP180;64454;51.984;9.838;2022-10-26T05:29:52;100164.00;;;10.20
75822;BMP180;64454;51.984;9.838;2022-10-26T05:32:19;100160.00;;;10.00
75822;BMP180;64454;51.984;9.838;2022-10-26T05:34:46;100159.00;;;9.90
75822;BMP180;64454;51.984;9.838;2022-10-26T05:37:13;100162.00;;;9.80
75822;BMP180;64454;51.984;9.838;2022-10-26T05:39:41;100166.00;;;9.80
75822;BMP180;64454;51.984;9.838;2022-10-26T05:42:09;100154.00;;;9.90
75822;BMP180;64454;51.984;9.838;2022-10-26T05:44:35;100158.00;;;10.10
75822;BMP180;64454;51.984;9.838;2022-10-26T05:47:02;100160.00;;;10.20
75822;BMP180;64454;51.984;9.838;2022-10-26T05:49:29;100158.00;;;10.30
75822;BMP180;64454;51.984;9.838;2022-10-26T05:51:56;100166.00;;;10.30
75822;BMP180;64454;51.984;9.838;2022-10-26T05:54:23;100164.00;;;10.40
75822;BMP180;64454;51.984;9.838;2022-10-26T05:56:52;100172.00;;;9.90
75822;BMP180;64454;51.984;9.838;2022-10-26T05:59:20;100175.00;;;9.80
75822;BMP180;64454;51.984;9.838;2022-10-26T06:02:09;100172.00;;;10.00
75822;BMP180;64454;51.984;9.838;2022-10-26T06:04:43;100178.00;;;9.80
75822;BMP180;64454;51.984;9.838;2022-10-26T06:07:15;100179.00;;;9.90
75822;BMP180;64454;51.984;9.838;2022-10-26T06:09:44;100180.00;;;10.20
75822;BMP180;64454;51.984;9.838;2022-10-26T06:12:14;100182.00;;;10.00
75822;BMP180;64454;51.984;9.838;2022-10-26T06:14:42;100182.00;;;10.10
75822;BMP180;64454;51.984;9.838;2022-10-26T06:17:36;100187.00;;;10.00
75822;BMP180;64454;51.984;9.838;2022-10-26T06:20:32;100180.00;;;10.10
75822;BMP180;64454;51.984;9.838;2022-10-26T06:23:29;100188.00;;;10.20
75822;BMP180;64454;51.984;9.838;2022-10-26T06:26:10;100179.00;;;10.30
75822;BMP180;64454;51.984;9.838;2022-10-26T06:28:51;100189.00;;;10.10
75822;BMP180;64454;51.984;9.838;2022-10-26T06:31:19;100186.00;;;10.20
75822;BMP180;64454;51.984;9.838;2022-10-26T06:33:46;100188.00;;;10.20
75822;BMP180;64454;51.984;9.838;2022-10-26T06:36:21;100195.00;;;10.10
75822;BMP180;64454;51.984;9.838;2022-10-26T06:38:54;100195.00;;;10.30
75822;BMP180;64454;51.984;9.838;2022-10-26T06:41:22;100199.00;;;10.40
75822;BMP180;64454;51.984;9.838;2022-10-26T06:43:51;100201.00;;;10.60
75822;BMP180;64454;51.984;9.838;2022-10-26T06:46:31;100205.00;;;10.60
75822;BMP180;64454;51.984;9.838;2022-10-26T06:49:08;100201.00;;;10.50
75822;BMP180;64454;51.984;9.838;2022-10-26T06:51:46;100202.00;;;10.70
75822;BMP180;64454;51.984;9.838;2022-10-26T06:54:21;100200.00;;;10.70
75822;BMP180;64454;51.984;9.838;2022-10-26T06:56:51;100209.00;;;10.90
75822;BMP180;64454;51.984;9.838;2022-10-26T06:59:35;100210.00;;;10.90
75822;BMP180;64454;51.984;9.838;2022-10-26T07:02:03;100208.00;;;11.00
75822;BMP180;64454;51.984;9.838;2022-10-26T07:04:30;100210.00;;;11.00
75822;BMP180;64454;51.984;9.838;2022-10-26T07:06:57;100217.00;;;11.00
75822;BMP180;64454;51.984;9.838;2022-10-26T07:09:24;100216.00;;;11.00
75822;BMP180;64454;51.984;9.838;2022-10-26T07:11:51;100213.00;;;11.10
75822;BMP180;64454;51.984;9.838;2022-10-26T07:14:18;100218.00;;;11.20
75822;BMP180;64454;51.984;9.838;2022-10-26T07:16:46;100214.00;;;11.30
75822;BMP180;64454;51.984;9.838;2022-10-26T07:19:13;100217.00;;;11.50
75822;BMP180;64454;51.984;9.838;2022-10-26T07:21:40;100218.00;;;11.50
75822;BMP180;64454;51.984;9.838;2022-10-26T07:24:07;100215.00;;;11.50
75822;BMP180;64454;51.984;9.838;2022-10-26T07:26:34;100216.00;;;11.60
75822;BMP180;64454;51.984;9.838;2022-10-26T07:29:01;100223.00;;;11.60
75822;BMP180;64454;51.984;9.838;2022-10-26T07:31:28;100224.00;;;11.70
75822;BMP180;64454;51.984;9.838;2022-10-26T07:33:57;100224.00;;;11.60
75822;BMP180;64454;51.984;9.838;2022-10-26T07:36:24;100228.00;;;11.60
75822;BMP180;64454;51.984;9.838;2022-10-26T07:38:51;100224.00;;;11.70
75822;BMP180;64454;51.984;9.838;2022-10-26T07:41:19;100230.00;;;11.80
75822;BMP180;64454;51.984;9.838;2022-10-26T07:43:46;100232.00;;;11.80
75822;BMP180;64454;51.984;9.838;2022-10-26T07:46:15;100221.00;;;11.90
75822;BMP180;64454;51.984;9.838;2022-10-26T07:48:42;100229.00;;;12.10
75822;BMP180;64454;51.984;9.838;2022-10-26T07:51:11;100233.00;;;12.00
75822;BMP180;64454;51.984;9.838;2022-10-26T07:53:38;100235.00;;;12.20
75822;BMP180;64454;51.984;9.838;2022-10-26T07:56:06;100232.00;;;12.20
75822;BMP180;64454;51.984;9.838;2022-10-26T07:58:33;100239.00;;;12.10
75822;BMP180;64454;51.984;9.838;2022-10-26T08:01:05;100233.00;;;12.30
75822;BMP180;64454;51.984;9.838;2022-10-26T08:03:32;100235.00;;;12.30
75822;BMP180;64454;51.984;9.838;2022-10-26T08:05:59;100231.00;;;12.50
75822;BMP180;64454;51.984;9.838;2022-10-26T08:08:30;100234.00;;;12.50
75822;BMP180;64454;51.984;9.838;2022-10-26T08:10:58;100238.00;;;12.60
75822;BMP180;64454;51.984;9.838;2022-10-26T08:13:25;100232.00;;;12.70
75822;BMP180;64454;51.984;9.838;2022-10-26T08:15:56;100233.00;;;12.80
75822;BMP180;64454;51.984;9.838;2022-10-26T08:18:23;100230.00;;;13.40
75822;BMP180;64454;51.984;9.838;2022-10-26T08:20:50;100229.00;;;13.30
75822;BMP180;64454;51.984;9.838;2022-10-26T08:23:17;100232.00;;;13.20
75822;BMP180;64454;51.984;9.838;2022-10-26T08:25:45;100234.00;;;13.50
75822;BMP180;64454;51.984;9.838;2022-10-26T08:28:12;100229.00;;;13.80
75822;BMP180;64454;51.984;9.838;2022-10-26T08:30:39;100234.00;;;13.60
75822;BMP180;64454;51.984;9.838;2022-10-26T08:33:08;100233.00;;;13.50
75822;BMP180;64454;51.984;9.838;2022-10-26T08:35:36;100234.00;;;13.40
75822;BMP180;64454;51.984;9.838;2022-10-26T08:38:02;100233.00;;;13.20
75822;BMP180;64454;51.984;9.838;2022-10-26T08:40:32;100241.00;;;13.30
75822;BMP180;64454;51.984;9.838;2022-10-26T08:43:09;100233.00;;;13.20
75822;BMP180;64454;51.984;9.838;2022-10-26T08:45:44;100229.00;;;13.20
75822;BMP180;64454;51.984;9.838;2022-10-26T08:48:16;100233.00;;;13.40
75822;BMP180;64454;51.984;9.838;2022-10-26T08:50:50;100232.00;;;13.40
75822;BMP180;64454;51.984;9.838;2022-10-26T08:53:26;100235.00;;;13.40
75822;BMP180;64454;51.984;9.838;2022-10-26T08:56:02;100217.00;;;13.60
75822;BMP180;64454;51.984;9.838;2022-10-26T08:58:38;100219.00;;;13.80
75822;BMP180;64454;51.984;9.838;2022-10-26T09:01:07;100213.00;;;13.90
75822;BMP180;64454;51.984;9.838;2022-10-26T09:03:35;100212.00;;;14.20
75822;BMP180;64454;51.984;9.838;2022-10-26T09:06:14;100216.00;;;14.50
75822;BMP180;64454;51.984;9.838;2022-10-26T09:08:55;100213.00;;;14.50
75822;BMP180;64454;51.984;9.838;2022-10-26T09:11:42;100217.00;;;14.40
75822;BMP180;64454;51.984;9.838;2022-10-26T09:14:20;100226.00;;;14.10
75822;BMP180;64454;51.984;9.838;2022-10-26T09:17:02;100223.00;;;14.40
75822;BMP180;64454;51.984;9.838;2022-10-26T09:19:57;100220.00;;;14.40
75822;BMP180;64454;51.984;9.838;2022-10-26T09:22:37;100219.00;;;14.50
75822;BMP180;64454;51.984;9.838;2022-10-26T09:25:18;100215.00;;;14.50
75822;BMP180;64454;51.984;9.838;2022-10-26T09:27:50;100217.00;;;15.00
75822;BMP180;64454;51.984;9.838;2022-10-26T09:30:21;100220.00;;;14.80
75822;BMP180;64454;51.984;9.838;2022-10-26T09:32:52;100216.00;;;14.90
75822;BMP180;64454;51.984;9.838;2022-10-26T09:35:24;100224.00;;;15.10
75822;BMP180;64454;51.984;9.838;2022-10-26T09:37:55;100231.00;;;15.00
75822;BMP180;64454;51.984;9.838;2022-10-26T09:40:32;100232.00;;;14.80
75822;BMP180;64454;51.984;9.838;2022-10-26T09:43:09;100231.00;;;15.10
75822;BMP180;64454;51.984;9.838;2022-10-26T09:45:42;100228.00;;;15.20
75822;BMP180;64454;51.984;9.838;2022-10-26T09:48:15;100228.00;;;15.30
75822;BMP180;64454;51.984;9.838;2022-10-26T09:50:48;100237.00;;;15.60
75822;BMP180;64454;51.984;9.838;2022-10-26T09:53:16;100239.00;;;15.80
75822;BMP180;64454;51.984;9.838;2022-10-26T09:55:46;100235.00;;;15.90
75822;BMP180;64454;51.984;9.838;2022-10-26T09:58:19;100232.00;;;15.70
75822;BMP180;64454;51.984;9.838;2022-10-26T10:00:51;100235.00;;;15.40
75822;BMP180;64454;51.984;9.838;2022-10-26T10:03:23;100237.00;;;15.40
75822;BMP180;64454;51.984;9.838;2022-10-26T10:05:51;100245.00;;;15.30
75822;BMP180;64454;51.984;9.838;2022-10-26T10:08:21;100236.00;;;15.30
75822;BMP180;64454;51.984;9.838;2022-10-26T10:10:58;100239.00;;;15.00
75822;BMP180;64454;51.984;9.838;2022-10-26T10:13:28;100244.00;;;14.70
75822;BMP180;64454;51.984;9.838;2022-10-26T10:16:05;100253.00;;;14.70
75822;BMP180;64454;51.984;9.838;2022-10-26T10:18:33;100261.00;;;14.60
75822;BMP180;64454;51.984;9.838;2022-10-26T10:21:01;100252.00;;;14.50
75822;BMP180;64454;51.984;9.838;2022-10-26T10:23:32;100262.00;;;14.50
75822;BMP180;64454;51.984;9.838;2022-10-26T10:26:07;100265.00;;;14.50
75822;BMP180;64454;51.984;9.838;2022-10-26T10:28:36;100265.00;;;14.50
75822;BMP180;64454;51.984;9.838;2022-10-26T10:31:17;100262.00;;;14.50
75822;BMP180;64454;51.984;9.838;2022-10-26T10:33:44;100278.00;;;14.50
75822;BMP180;64454;51.984;9.838;2022-10-26T10:36:18;100267.00;;;14.50
75822;BMP180;64454;51.984;9.838;2022-10-26T10:38:48;100266.00;;;14.50
75822;BMP180;64454;51.984;9.838;2022-10-26T10:41:24;100268.00;;;14.60
75822;BMP180;64454;51.984;9.838;2022-10-26T10:43:55;100267.00;;;15.00
75822;BMP180;64454;51.984;9.838;2022-10-26T10:46:26;100260.00;;;14.90
75822;BMP180;64454;51.984;9.838;2022-10-26T10:49:02;100257.00;;;15.00
75822;BMP180;64454;51.984;9.838;2022-10-26T10:51:38;100261.00;;;15.20
75822;BMP180;64454;51.984;9.838;2022-10-26T10:54:19;100259.00;;;15.20
75822;BMP180;64454;51.984;9.838;2022-10-26T10:56:50;100255.00;;;15.90
75822;BMP180;64454;51.984;9.838;2022-10-26T11:03:03;100255.00;;;16.90
75822;BMP180;64454;51.984;9.838;2022-10-26T11:08:37;100250.00;;;16.50
75822;BMP180;64454;51.984;9.838;2022-10-26T11:11:10;100257.00;;;16.60
75822;BMP180;64454;51.984;9.838;2022-10-26T11:13:47;100260.00;;;16.60
75822;BMP180;64454;51.984;9.838;2022-10-26T11:16:22;100260.00;;;16.30
75822;BMP180;64454;51.984;9.838;2022-10-26T11:18:57;100252.00;;;17.00
75822;BMP180;64454;51.984;9.838;2022-10-26T11:21:29;100233.00;;;17.70
75822;BMP180;64454;51.984;9.838;2022-10-26T11:24:08;100237.00;;;18.30
75822;BMP180;64454;51.984;9.838;2022-10-26T11:26:44;100241.00;;;19.00
75822;BMP180;64454;51.984;9.838;2022-10-26T11:29:27;100245.00;;;18.60
75822;BMP180;64454;51.984;9.838;2022-10-26T11:32:02;100245.00;;;18.10
75822;BMP180;64454;51.984;9.838;2022-10-26T11:34:43;100241.00;;;18.40
75822;BMP180;64454;51.984;9.838;2022-10-26T11:37:22;100253.00;;;18.10
75822;BMP180;64454;51.984;9.838;2022-10-26T11:40:02;100247.00;;;18.00
75822;BMP180;64454;51.984;9.838;2022-10-26T11:42:36;100261.00;;;18.70
75822;BMP180;64454;51.984;9.838;2022-10-26T11:45:14;100261.00;;;18.40
75822;BMP180;64454;51.984;9.838;2022-10-26T11:47:50;100250.00;;;18.40
75822;BMP180;64454;51.984;9.838;2022-10-26T11:50:22;100256.00;;;18.80
75822;BMP180;64454;51.984;9.838;2022-10-26T11:52:58;100263.00;;;19.00
75822;BMP180;64454;51.984;9.838;2022-10-26T11:55:28;100258.00;;;19.20
75822;BMP180;64454;51.984;9.838;2022-10-26T11:57:57;100251.00;;;18.60
75822;BMP180;64454;51.984;9.838;2022-10-26T12:00:25;100259.00;;;19.50
75822;BMP180;64454;51.984;9.838;2022-10-26T12:02:57;100268.00;;;20.10
75822;BMP180;64454;51.984;9.838;2022-10-26T12:05:41;100294.00;;;19.30
75822;BMP180;64454;51.984;9.838;2022-10-26T12:08:15;100293.00;;;18.30
75822;BMP180;64454;51.984;9.838;2022-10-26T12:10:50;100288.00;;;18.10
75822;BMP180;64454;51.984;9.838;2022-10-26T12:13:24;100292.00;;;17.60
75822;BMP180;64454;51.984;9.838;2022-10-26T12:15:59;100288.00;;;17.70
75822;BMP180;64454;51.984;9.838;2022-10-26T12:18:38;100291.00;;;17.30
75822;BMP180;64454;51.984;9.838;2022-10-26T12:21:10;100292.00;;;17.30
75822;BMP180;64454;51.984;9.838;2022-10-26T12:23:53;100303.00;;;16.90
75822;BMP180;64454;51.984;9.838;2022-10-26T12:26:38;100296.00;;;17.00
75822;BMP180;64454;51.984;9.838;2022-10-26T12:29:33;100282.00;;;16.90
75822;BMP180;64454;51.984;9.838;2022-10-26T12:32:03;100288.00;;;17.20
75822;BMP180;64454;51.984;9.838;2022-10-26T12:35:03;100291.00;;;17.30
75822;BMP180;64454;51.984;9.838;2022-10-26T12:37:35;100299.00;;;17.10
75822;BMP180;64454;51.984;9.838;2022-10-26T12:40:38;100305.00;;;17.30
75822;BMP180;64454;51.984;9.838;2022-10-26T12:43:36;100295.00;;;17.80
75822;BMP180;64454;51.984;9.838;2022-10-26T12:46:39;100277.00;;;18.60
75822;BMP180;64454;51.984;9.838;2022-10-26T12:49:57;100264.00;;;20.20
75822;BMP180;64454;51.984;9.838;2022-10-26T12:52:43;100263.00;;;21.40
75822;BMP180;64454;51.984;9.838;2022-10-26T12:58:52;100275.00;;;22.40
75822;BMP180;64454;51.984;9.838;2022-10-26T13:05:28;100270.00;;;22.70
75822;BMP180;64454;51.984;9.838;2022-10-26T13:08:06;100273.00;;;24.00
75822;BMP180;64454;51.984;9.838;2022-10-26T13:10:34;100274.00;;;23.20
75822;BMP180;64454;51.984;9.838;2022-10-26T13:13:05;100280.00;;;23.70
75822;BMP180;64454;51.984;9.838;2022-10-26T13:15:38;100278.00;;;22.10
75822;BMP180;64454;51.984;9.838;2022-10-26T13:18:14;100281.00;;;23.40
75822;BMP180;64454;51.984;9.838;2022-10-26T13:20:53;100285.00;;;22.00
75822;BMP180;64454;51.984;9.838;2022-10-26T13:23:29;100288.00;;;22.50
75822;BMP180;64454;51.984;9.838;2022-10-26T13:26:06;100285.00;;;22.40
75822;BMP180;64454;51.984;9.838;2022-10-26T13:28:48;100282.00;;;22.80
75822;BMP180;64454;51.984;9.838;2022-10-26T13:31:54;100291.00;;;22.20
75822;BMP180;64454;51.984;9.838;2022-10-26T13:34:29;100291.00;;;24.70
75822;BMP180;64454;51.984;9.838;2022-10-26T13:37:06;100299.00;;;24.20
75822;BMP180;64454;51.984;9.838;2022-10-26T13:39:40;100310.00;;;23.30
75822;BMP180;64454;51.984;9.838;2022-10-26T13:42:15;100303.00;;;20.60
75822;BMP180;64454;51.984;9.838;2022-10-26T13:44:50;100312.00;;;20.90
75822;BMP180;64454;51.984;9.838;2022-10-26T13:47:28;100317.00;;;19.90
75822;BMP180;64454;51.984;9.838;2022-10-26T13:50:04;100325.00;;;19.90
75822;BMP180;64454;51.984;9.838;2022-10-26T13:52:35;100317.00;;;19.00
75822;BMP180;64454;51.984;9.838;2022-10-26T13:55:14;100318.00;;;19.20
75822;BMP180;64454;51.984;9.838;2022-10-26T13:58:04;100315.00;;;19.30
75822;BMP180;64454;51.984;9.838;2022-10-26T14:00:37;100317.00;;;18.50
75822;BMP180;64454;51.984;9.838;2022-10-26T14:03:17;100323.00;;;18.40
75822;BMP180;64454;51.984;9.838;2022-10-26T14:05:49;100320.00;;;19.10
75822;BMP180;64454;51.984;9.838;2022-10-26T14:08:18;100322.00;;;18.60
75822;BMP180;64454;51.984;9.838;2022-10-26T14:10:55;100320.00;;;18.80
75822;BMP180;64454;51.984;9.838;2022-10-26T14:13:25;100324.00;;;18.80
75822;BMP180;64454;51.984;9.838;2022-10-26T14:15:55;100326.00;;;18.80
75822;BMP180;64454;51.984;9.838;2022-10-26T14:18:25;100333.00;;;18.60
75822;BMP180;64454;51.984;9.838;2022-10-26T14:20:59;100332.00;;;18.70
75822;BMP180;64454;51.984;9.838;2022-10-26T14:23:30;100335.00;;;18.60
75822;BMP180;64454;51.984;9.838;2022-10-26T14:25:59;100332.00;;;18.60
75822;BMP180;64454;51.984;9.838;2022-10-26T14:28:30;100341.00;;;18.60
75822;BMP180;64454;51.984;9.838;2022-10-26T14:31:12;100347.00;;;18.50
75822;BMP180;64454;51.984;9.838;2022-10-26T14:33:39;100349.00;;;18.60
75822;BMP180;64454;51.984;9.838;2022-10-26T14:36:06;100353.00;;;18.30
75822;BMP180;64454;51.984;9.838;2022-10-26T14:38:42;100356.00;;;18.30
75822;BMP180;64454;51.984;9.838;2022-10-26T14:41:15;100360.00;;;18.40
75822;BMP180;64454;51.984;9.838;2022-10-26T14:43:43;100368.00;;;18.30
75822;BMP180;64454;51.984;9.838;2022-10-26T14:46:15;100369.00;;;18.30
75822;BMP180;64454;51.984;9.838;2022-10-26T14:48:52;100364.00;;;18.40